Time;durP1;ratioP1;P1;durP2;ratioP2;P2;SDS_P1;SDS_P2;PMS_P1;PMS_P2;Temp;Humidity;BMP_temperature;BMP_pressure;BME280_temperature;BME280_humidity;BME280_pressure;Samples;Min_cycle;Max_cycle;Signal;HPM_P1;HPM_P2
2022/06/17 00:01:36;;;;;;;;;;;14.30;99.90;;;;;;5045750;28;19952;-76
2022/06/17 00:04:02;;;;;;;;;;;14.20;99.90;;;;;;5038232;28;19936;-76
2022/06/17 00:06:32;;;;;;;;;;;14.20;99.90;;;;;;5043850;28;20028;-75
2022/06/17 00:09:00;;;;;;;;;;;14.20;99.90;;;;;;5044470;28;20318;-75
2022/06/17 00:11:28;;;;;;;;;;;14.10;99.90;;;;;;5048102;28;19959;-74
2022/06/17 00:13:55;;;;;;;;;;;14.10;99.90;;;;;;5045099;28;20583;-75
2022/06/17 00:16:23;;;;;;;;;;;14.00;99.90;;;;;;5047178;28;19935;-75
2022/06/17 00:18:50;;;;;;;;;;;14.00;99.90;;;;;;5043667;28;20274;-74
2022/06/17 00:21:20;;;;;;;;;;;14.00;99.90;;;;;;5041903;28;19933;-74
2022/06/17 00:23:47;;;;;;;;;;;13.90;99.90;;;;;;5041699;28;20302;-76
2022/06/17 00:26:15;;;;;;;;;;;13.90;99.90;;;;;;5046977;28;20650;-76
2022/06/17 00:28:43;;;;;;;;;;;;;;;;;;5044943;28;19984;-75
2022/06/17 00:31:10;;;;;;;;;;;;;;;;;;5042173;28;20007;-76
2022/06/17 00:33:37;;;;;;;;;;;;;;;;;;5038604;28;20326;-76
2022/06/17 00:36:04;;;;;;;;;;;13.80;99.90;;;;;;5046918;28;20047;-75
2022/06/17 00:38:31;;;;;;;;;;;;;;;;;;5045428;28;19936;-76
2022/06/17 00:40:58;;;;;;;;;;;;;;;;;;5041113;28;19929;-74
2022/06/17 00:43:25;;;;;;;;;;;;;;;;;;5046082;28;20727;-76
2022/06/17 00:45:52;;;;;;;;;;;;;;;;;;5041372;28;19925;-75
2022/06/17 00:48:23;;;;;;;;;;;13.70;99.90;;;;;;5043471;28;19998;-75
2022/06/17 00:50:50;;;;;;;;;;;;;;;;;;5040023;28;19928;-75
2022/06/17 00:53:18;;;;;;;;;;;;;;;;;;5042993;28;19928;-75
2022/06/17 00:55:47;;;;;;;;;;;;;;;;;;5044877;28;20393;-75
2022/06/17 00:58:16;;;;;;;;;;;13.70;99.90;;;;;;5030539;28;19943;-74
2022/06/17 01:00:43;;;;;;;;;;;;;;;;;;5043139;28;19972;-74
2022/06/17 01:03:13;;;;;;;;;;;13.70;99.90;;;;;;5043590;28;19929;-75
2022/06/17 01:05:43;;;;;;;;;;;13.60;99.90;;;;;;5036651;28;19929;-74
2022/06/17 01:08:14;;;;;;;;;;;13.60;99.90;;;;;;5047370;28;20326;-74
2022/06/17 01:10:40;;;;;;;;;;;;;;;;;;5044985;28;19929;-77
2022/06/17 01:13:08;;;;;;;;;;;;;;;;;;5044067;28;19936;-78
2022/06/17 01:15:38;;;;;;;;;;;13.50;99.90;;;;;;5039909;28;20036;-78
2022/06/17 01:18:05;;;;;;;;;;;13.50;99.90;;;;;;5038591;28;19979;-76
2022/06/17 01:20:34;;;;;;;;;;;13.50;99.90;;;;;;5041115;28;19928;-77
2022/06/17 01:23:02;;;;;;;;;;;;;;;;;;5040161;28;19947;-78
2022/06/17 01:25:32;;;;;;;;;;;13.50;99.90;;;;;;5042109;28;19925;-76
2022/06/17 01:27:59;;;;;;;;;;;;;;;;;;5038564;28;19932;-76
2022/06/17 01:30:26;;;;;;;;;;;;;;;;;;5045870;28;20023;-76
2022/06/17 01:32:55;;;;;;;;;;;13.40;99.90;;;;;;5046213;28;19928;-79
2022/06/17 01:35:24;;;;;;;;;;;13.40;99.90;;;;;;5044731;28;19952;-80
2022/06/17 01:37:52;;;;;;;;;;;;;;;;;;5046892;28;20409;-79
2022/06/17 01:40:19;;;;;;;;;;;;;;;;;;5045764;28;20397;-79
2022/06/17 01:42:46;;;;;;;;;;;;;;;;;;5044543;28;19939;-79
2022/06/17 01:45:14;;;;;;;;;;;13.30;99.90;;;;;;5044528;28;19935;-77
2022/06/17 01:47:41;;;;;;;;;;;;;;;;;;5045866;28;20013;-78
2022/06/17 01:50:11;;;;;;;;;;;13.30;99.90;;;;;;5031877;28;20505;-77
2022/06/17 01:52:40;;;;;;;;;;;13.30;99.90;;;;;;5041215;28;19924;-77
2022/06/17 01:55:09;;;;;;;;;;;13.30;99.90;;;;;;5042204;28;20357;-79
2022/06/17 01:57:38;;;;;;;;;;;13.30;99.90;;;;;;5038919;28;19932;-81
2022/06/17 02:00:10;;;;;;;;;;;13.30;99.90;;;;;;5045316;28;19971;-82
2022/06/17 02:02:45;;;;;;;;;;;13.40;99.90;;;;;;5044983;28;19975;-79
2022/06/17 02:05:12;;;;;;;;;;;13.40;99.90;;;;;;5045122;28;19933;-79
2022/06/17 02:07:42;;;;;;;;;;;13.40;99.90;;;;;;5045639;28;20271;-77
2022/06/17 02:10:10;;;;;;;;;;;13.40;99.90;;;;;;5040268;28;20024;-76
2022/06/17 02:12:37;;;;;;;;;;;13.50;99.90;;;;;;5040997;28;20394;-75
2022/06/17 02:15:09;;;;;;;;;;;13.50;99.90;;;;;;5041900;28;19932;-80
2022/06/17 02:18:04;;;;;;;;;;;13.50;99.90;;;;;;5057590;28;19943;-77
2022/06/17 02:20:43;;;;;;;;;;;13.50;99.90;;;;;;5052536;28;19965;-79
2022/06/17 02:23:10;;;;;;;;;;;13.50;99.90;;;;;;5046233;28;19932;-77
2022/06/17 02:25:38;;;;;;;;;;;13.50;99.90;;;;;;5048874;28;19932;-79
2022/06/17 02:28:06;;;;;;;;;;;13.50;99.90;;;;;;5049098;28;19933;-77
2022/06/17 02:30:33;;;;;;;;;;;13.50;99.90;;;;;;5049055;28;19939;-76
2022/06/17 02:33:02;;;;;;;;;;;13.40;99.90;;;;;;5047304;28;20297;-79
2022/06/17 02:35:34;;;;;;;;;;;13.40;99.90;;;;;;5050693;28;19928;-78
2022/06/17 02:38:01;;;;;;;;;;;13.40;99.90;;;;;;5048736;28;19939;-77
2022/06/17 02:40:30;;;;;;;;;;;13.30;99.90;;;;;;5048573;28;20374;-79
2022/06/17 02:42:58;;;;;;;;;;;13.30;99.90;;;;;;5047008;28;20051;-80
2022/06/17 02:45:26;;;;;;;;;;;13.30;99.90;;;;;;5049285;28;20452;-79
2022/06/17 02:47:53;;;;;;;;;;;13.30;99.90;;;;;;5050251;28;19935;-77
2022/06/17 02:50:22;;;;;;;;;;;13.20;99.90;;;;;;5048358;28;19959;-77
2022/06/17 02:52:51;;;;;;;;;;;13.20;99.90;;;;;;5036808;28;20024;-77
2022/06/17 02:55:21;;;;;;;;;;;11.90;99.90;;;;;;5048389;28;19932;-78
2022/06/17 02:57:47;;;;;;;;;;;13.10;99.90;;;;;;5048239;28;19929;-77
2022/06/17 03:00:17;;;;;;;;;;;13.10;99.90;;;;;;5048296;28;20032;-78
2022/06/17 03:02:46;;;;;;;;;;;13.00;99.90;;;;;;5046329;28;19932;-76
2022/06/17 03:05:16;;;;;;;;;;;13.10;99.90;;;;;;5051464;28;19950;-76
2022/06/17 03:07:43;;;;;;;;;;;13.00;99.90;;;;;;5052954;28;19932;-77
2022/06/17 03:10:18;;;;;;;;;;;13.00;99.90;;;;;;5058638;28;19963;-73
2022/06/17 03:12:48;;;;;;;;;;;13.00;99.90;;;;;;5046632;28;20035;-73
2022/06/17 03:15:16;;;;;;;;;;;13.00;99.90;;;;;;5046652;28;19968;-75
2022/06/17 03:17:46;;;;;;;;;;;12.90;99.90;;;;;;5049211;28;19931;-74
2022/06/17 03:20:16;;;;;;;;;;;12.90;99.90;;;;;;5041162;28;19932;-73
2022/06/17 03:22:45;;;;;;;;;;;12.90;99.90;;;;;;5047830;28;20533;-73
2022/06/17 03:25:15;;;;;;;;;;;12.90;99.90;;;;;;5043134;28;20014;-73
2022/06/17 03:27:46;;;;;;;;;;;12.90;99.90;;;;;;5042728;28;20318;-74
2022/06/17 03:30:17;;;;;;;;;;;12.90;99.90;;;;;;5036842;28;20410;-73
2022/06/17 03:32:45;;;;;;;;;;;12.90;99.90;;;;;;5050475;28;19959;-72
2022/06/17 03:35:16;;;;;;;;;;;12.90;99.90;;;;;;5048349;28;20086;-73
2022/06/17 03:37:51;;;;;;;;;;;12.90;99.90;;;;;;5048787;28;19933;-72
2022/06/17 03:40:21;;;;;;;;;;;12.90;99.90;;;;;;5045815;28;19935;-74
2022/06/17 03:42:54;;;;;;;;;;;12.90;99.90;;;;;;5044059;28;19982;-73
2022/06/17 03:45:24;;;;;;;;;;;12.90;99.90;;;;;;5048289;28;19993;-73
2022/06/17 03:47:55;;;;;;;;;;;12.90;99.90;;;;;;5048282;28;19936;-73
2022/06/17 03:50:24;;;;;;;;;;;12.90;99.90;;;;;;5046090;28;19936;-74
2022/06/17 03:52:53;;;;;;;;;;;12.90;99.90;;;;;;5053230;28;19951;-74
2022/06/17 03:55:22;;;;;;;;;;;12.90;99.90;;;;;;5060089;28;19987;-74
2022/06/17 03:57:51;;;;;;;;;;;12.90;99.90;;;;;;5046871;28;19929;-74
2022/06/17 04:00:22;;;;;;;;;;;12.90;99.90;;;;;;5046345;28;19932;-74
2022/06/17 04:02:51;;;;;;;;;;;12.90;99.90;;;;;;5044412;28;19924;-72
2022/06/17 04:05:20;;;;;;;;;;;13.00;99.90;;;;;;5035153;28;19929;-74
2022/06/17 04:07:49;;;;;;;;;;;13.00;99.90;;;;;;5040570;28;19935;-74
2022/06/17 04:10:17;;;;;;;;;;;13.00;99.90;;;;;;5039977;28;20037;-73
2022/06/17 04:12:47;;;;;;;;;;;13.10;99.90;;;;;;5038537;28;20020;-72
2022/06/17 04:15:41;;;;;;;;;;;13.10;99.90;;;;;;5041490;28;19929;-74
2022/06/17 04:18:09;;;;;;;;;;;13.10;99.90;;;;;;5046294;28;19932;-74
2022/06/17 04:20:40;;;;;;;;;;;13.20;99.90;;;;;;5047161;28;19925;-74
2022/06/17 04:23:10;;;;;;;;;;;13.20;99.90;;;;;;5044377;28;19925;-75
2022/06/17 04:26:06;;;;;;;;;;;13.20;99.90;;;;;;5018771;28;19964;-77
2022/06/17 04:28:35;;;;;;;;;;;13.50;99.90;;;;;;5046976;28;19933;-75
2022/06/17 04:31:06;;;;;;;;;;;13.30;99.90;;;;;;5044867;28;19939;-75
2022/06/17 04:33:39;;;;;;;;;;;13.40;99.90;;;;;;5044657;28;20586;-74
2022/06/17 04:36:10;;;;;;;;;;;13.30;99.90;;;;;;5045700;28;19924;-75
2022/06/17 04:38:47;;;;;;;;;;;13.40;99.90;;;;;;5046244;28;20424;-75
2022/06/17 04:41:34;;;;;;;;;;;13.50;99.90;;;;;;5044545;28;20337;-74
2022/06/17 04:44:12;;;;;;;;;;;13.60;99.90;;;;;;5043354;28;19940;-74
2022/06/17 04:46:42;;;;;;;;;;;13.70;99.90;;;;;;5050257;28;19929;-75
2022/06/17 04:49:18;;;;;;;;;;;13.80;99.90;;;;;;5036737;28;19991;-74
2022/06/17 04:51:46;;;;;;;;;;;14.00;99.90;;;;;;5041316;28;20032;-73
2022/06/17 04:54:13;;;;;;;;;;;14.20;99.90;;;;;;5045499;28;19936;-75
2022/06/17 04:57:15;;;;;;;;;;;14.20;99.90;;;;;;5024073;28;19925;-75
2022/06/17 04:59:47;;;;;;;;;;;14.50;99.90;;;;;;5040874;28;19928;-75
2022/06/17 05:02:16;;;;;;;;;;;14.70;99.90;;;;;;5046228;28;20333;-76
2022/06/17 05:04:52;;;;;;;;;;;14.90;99.90;;;;;;5035947;28;20409;-76
2022/06/17 05:07:19;;;;;;;;;;;15.10;99.90;;;;;;5046772;28;20024;-75
2022/06/17 05:09:50;;;;;;;;;;;15.20;99.90;;;;;;5045606;28;20360;-75
2022/06/17 05:12:25;;;;;;;;;;;15.40;99.90;;;;;;5038911;28;19975;-76
2022/06/17 05:14:54;;;;;;;;;;;15.70;99.90;;;;;;5039930;28;20306;-75
2022/06/17 05:17:21;;;;;;;;;;;15.90;99.90;;;;;;5045751;28;19929;-75
2022/06/17 05:19:53;;;;;;;;;;;16.10;99.90;;;;;;5038356;28;19928;-76
2022/06/17 05:22:25;;;;;;;;;;;16.30;99.90;;;;;;5034367;28;19925;-75
2022/06/17 05:24:53;;;;;;;;;;;16.60;99.90;;;;;;5037249;28;20418;-76
2022/06/17 05:27:21;;;;;;;;;;;16.90;99.90;;;;;;5046735;28;19947;-75
2022/06/17 05:29:49;;;;;;;;;;;17.10;99.90;;;;;;5041179;28;19929;-75
2022/06/17 05:32:18;;;;;;;;;;;17.50;99.90;;;;;;5043121;28;19967;-75
2022/06/17 05:34:47;;;;;;;;;;;18.00;99.90;;;;;;5047831;28;20246;-79
2022/06/17 05:37:16;;;;;;;;;;;18.80;99.90;;;;;;5045918;28;19940;-78
2022/06/17 05:39:45;;;;;;;;;;;19.90;99.90;;;;;;5046312;28;19969;-78
2022/06/17 05:42:12;;;;;;;;;;;21.00;99.90;;;;;;5045596;28;19929;-79
2022/06/17 05:44:40;;;;;;;;;;;22.80;99.90;;;;;;5037950;28;19932;-78
2022/06/17 05:47:32;;;;;;;;;;;24.80;99.90;;;;;;5040658;28;20109;-78
2022/06/17 05:50:16;;;;;;;;;;;26.90;99.90;;;;;;5041387;28;19937;-77
2022/06/17 05:52:53;;;;;;;;;;;28.40;99.90;;;;;;5043343;28;19925;-80
2022/06/17 05:55:42;;;;;;;;;;;28.70;99.90;;;;;;5034287;28;19948;-81
2022/06/17 05:58:09;;;;;;;;;;;28.30;99.90;;;;;;5042249;28;20047;-78
2022/06/17 06:00:37;;;;;;;;;;;27.30;99.90;;;;;;5040921;28;19951;-80
2022/06/17 06:03:05;;;;;;;;;;;25.90;99.90;;;;;;5045043;28;19968;-78
2022/06/17 06:05:38;;;;;;;;;;;25.70;99.90;;;;;;5050694;28;20027;-78
2022/06/17 06:08:11;;;;;;;;;;;25.10;99.90;;;;;;5050039;28;19936;-78
2022/06/17 06:10:40;;;;;;;;;;;24.50;99.90;;;;;;5049977;28;19929;-78
2022/06/17 06:13:07;;;;;;;;;;;23.80;99.90;;;;;;5050587;28;19928;-78
2022/06/17 06:15:39;;;;;;;;;;;23.80;99.90;;;;;;5052131;28;19983;-78
2022/06/17 06:21:16;;;;;;;;;;;23.70;99.90;;;;;;4994802;28;20375;-81
2022/06/17 06:23:44;;;;;;;;;;;23.00;99.90;;;;;;4993696;28;19930;-80
2022/06/17 06:26:16;;;;;;;;;;;23.70;99.90;;;;;;4994300;28;19925;-81
2022/06/17 06:28:46;;;;;;;;;;;24.80;99.90;;;;;;4991086;28;19937;-82
2022/06/17 06:31:27;;;;;;;;;;;25.10;99.90;;;;;;4992933;28;19934;-81
2022/06/17 06:33:55;;;;;;;;;;;26.70;99.90;;;;;;4991354;28;19926;-81
2022/06/17 06:36:24;;;;;;;;;;;28.50;99.90;;;;;;4971591;28;19993;-81
2022/06/17 06:38:52;;;;;;;;;;;31.40;99.90;;;;;;4991320;28;19989;-82
2022/06/17 06:41:21;;;;;;;;;;;31.70;96.60;;;;;;4992364;28;19984;-81
2022/06/17 06:43:49;;;;;;;;;;;33.00;93.70;;;;;;4979055;28;20033;-82
2022/06/17 06:46:25;;;;;;;;;;;33.90;90.30;;;;;;4984865;28;20295;-81
2022/06/17 06:48:51;;;;;;;;;;;35.40;91.30;;;;;;4996906;28;20005;-81
2022/06/17 06:51:20;;;;;;;;;;;35.70;84.30;;;;;;4995833;28;20025;-80
2022/06/17 06:53:52;;;;;;;;;;;36.40;79.00;;;;;;4989307;28;19945;-82
2022/06/17 06:56:19;;;;;;;;;;;36.90;76.20;;;;;;4980825;28;19940;-82
2022/06/17 06:58:46;;;;;;;;;;;37.50;79.80;;;;;;4977004;28;19930;-85
2022/06/17 07:01:13;;;;;;;;;;;37.70;71.70;;;;;;4993843;28;19966;-80
2022/06/17 07:03:40;;;;;;;;;;;38.30;68.60;;;;;;4979771;28;20370;-82
2022/06/17 07:06:06;;;;;;;;;;;38.60;64.70;;;;;;4981470;28;20001;-83
2022/06/17 07:08:35;;;;;;;;;;;39.00;70.80;;;;;;4995271;28;19988;-82
2022/06/17 07:11:05;;;;;;;;;;;39.10;65.50;;;;;;4996610;28;19930;-82
2022/06/17 07:13:32;;;;;;;;;;;39.30;60.50;;;;;;5009355;28;19930;-83
2022/06/17 07:15:59;;;;;;;;;;;39.20;59.50;;;;;;5008092;28;19930;-84
2022/06/17 07:18:27;;;;;;;;;;;38.80;57.80;;;;;;4995207;28;19989;-85
2022/06/17 07:20:55;;;;;;;;;;;38.80;57.20;;;;;;4995029;28;19937;-82
2022/06/17 07:23:24;;;;;;;;;;;38.70;57.20;;;;;;5011250;28;20582;-83
2022/06/17 07:25:51;;;;;;;;;;;38.70;56.10;;;;;;5021376;28;19936;-83
2022/06/17 07:28:22;;;;;;;;;;;38.40;55.30;;;;;;5016771;28;19937;-82
2022/06/17 07:30:50;;;;;;;;;;;38.40;55.60;;;;;;5018311;28;19930;-83
2022/06/17 07:33:17;;;;;;;;;;;38.30;55.50;;;;;;5022920;28;19930;-83
2022/06/17 07:35:44;;;;;;;;;;;38.30;54.20;;;;;;5009805;28;19961;-79
2022/06/17 07:40:57;;;;;;;;;;;37.70;54.80;;;;;;5013241;28;20256;-81
2022/06/17 07:43:25;;;;;;;;;;;37.60;54.00;;;;;;5014344;28;19940;-81
2022/06/17 07:45:52;;;;;;;;;;;37.20;54.00;;;;;;5015376;28;20542;-82
2022/06/17 07:48:19;;;;;;;;;;;36.60;54.60;;;;;;5014912;28;19933;-80
2022/06/17 07:50:46;;;;;;;;;;;36.60;55.00;;;;;;5010755;28;19993;-80
2022/06/17 07:53:14;;;;;;;;;;;36.40;54.20;;;;;;5015230;28;19938;-80
2022/06/17 07:55:42;;;;;;;;;;;36.40;54.00;;;;;;5002832;28;19955;-79
2022/06/17 07:58:10;;;;;;;;;;;36.20;54.10;;;;;;5015419;28;19965;-82
2022/06/17 08:00:41;;;;;;;;;;;36.20;54.90;;;;;;5015611;28;19929;-80
2022/06/17 08:03:08;;;;;;;;;;;36.10;54.80;;;;;;5006952;28;19930;-81
2022/06/17 08:05:35;;;;;;;;;;;36.20;55.10;;;;;;5028091;28;19929;-80
2022/06/17 08:08:04;;;;;;;;;;;36.60;54.60;;;;;;5013053;28;20934;-79
2022/06/17 08:10:32;;;;;;;;;;;36.80;53.90;;;;;;5023195;28;19957;-80
2022/06/17 08:12:59;;;;;;;;;;;36.70;54.60;;;;;;5000646;28;19930;-79
2022/06/17 08:15:26;;;;;;;;;;;36.80;54.20;;;;;;5014541;28;19945;-80
2022/06/17 08:17:54;;;;;;;;;;;36.70;53.70;;;;;;5010463;28;20493;-80
2022/06/17 08:20:22;;;;;;;;;;;36.70;53.10;;;;;;5016068;28;19929;-80
2022/06/17 08:22:49;;;;;;;;;;;36.90;53.20;;;;;;5019598;28;20012;-80
2022/06/17 08:25:16;;;;;;;;;;;36.70;52.80;;;;;;5017928;28;20020;-81
2022/06/17 08:27:43;;;;;;;;;;;36.60;52.30;;;;;;5010891;28;19951;-83
2022/06/17 08:30:10;;;;;;;;;;;36.00;51.40;;;;;;5013874;28;19932;-83
2022/06/17 08:32:51;;;;;;;;;;;35.50;53.30;;;;;;5019811;28;19925;-80
2022/06/17 08:35:28;;;;;;;;;;;35.40;52.60;;;;;;5013485;28;19945;-80
2022/06/17 08:37:56;;;;;;;;;;;35.00;52.20;;;;;;5019611;28;19929;-81
2022/06/17 08:40:31;;;;;;;;;;;34.50;53.00;;;;;;5018379;28;19926;-80
2022/06/17 08:43:02;;;;;;;;;;;34.20;54.20;;;;;;5016163;28;19930;-81
2022/06/17 08:45:33;;;;;;;;;;;33.80;54.60;;;;;;5019675;28;19933;-82
2022/06/17 08:48:08;;;;;;;;;;;33.50;55.20;;;;;;5030470;28;19914;-81
2022/06/17 08:50:43;;;;;;;;;;;33.40;55.20;;;;;;5028136;28;19934;-81
2022/06/17 08:53:18;;;;;;;;;;;33.70;55.60;;;;;;5014104;28;19993;-80
2022/06/17 08:55:49;;;;;;;;;;;33.80;55.30;;;;;;5008797;28;19936;-81
2022/06/17 08:58:18;;;;;;;;;;;33.70;54.10;;;;;;5016866;28;19940;-82
2022/06/17 09:00:48;;;;;;;;;;;33.60;53.90;;;;;;5012669;28;19988;-82
2022/06/17 09:03:30;;;;;;;;;;;33.40;55.50;;;;;;5016835;28;20020;-82
2022/06/17 09:06:03;;;;;;;;;;;33.40;55.30;;;;;;5015436;28;19943;-79
2022/06/17 09:08:37;;;;;;;;;;;33.20;54.80;;;;;;5020534;28;19934;-79
2022/06/17 09:11:13;;;;;;;;;;;33.20;55.20;;;;;;5024036;28;19925;-78
2022/06/17 09:13:43;;;;;;;;;;;32.80;55.30;;;;;;5004531;28;19925;-78
2022/06/17 09:16:16;;;;;;;;;;;32.70;56.80;;;;;;5020636;28;19926;-79
2022/06/17 09:18:44;;;;;;;;;;;33.30;56.80;;;;;;4996395;28;20027;-78
2022/06/17 09:21:14;;;;;;;;;;;33.80;57.10;;;;;;5011180;28;19929;-77
2022/06/17 09:23:41;;;;;;;;;;;33.70;56.70;;;;;;5005213;28;19925;-79
2022/06/17 09:26:12;;;;;;;;;;;33.70;56.00;;;;;;5006620;28;19951;-79
2022/06/17 09:28:41;;;;;;;;;;;33.10;55.30;;;;;;5018547;28;20015;-80
2022/06/17 09:31:10;;;;;;;;;;;33.10;55.80;;;;;;5017156;28;19925;-79
2022/06/17 09:33:39;;;;;;;;;;;32.90;56.60;;;;;;5016461;28;19929;-79
2022/06/17 09:36:11;;;;;;;;;;;33.00;56.40;;;;;;5013240;28;20016;-79
2022/06/17 09:38:41;;;;;;;;;;;32.30;55.60;;;;;;4989074;28;19941;-79
2022/06/17 09:41:12;;;;;;;;;;;33.20;56.30;;;;;;5013094;28;19925;-78
2022/06/17 09:43:43;;;;;;;;;;;33.30;55.80;;;;;;5015690;28;19936;-80
2022/06/17 09:46:14;;;;;;;;;;;33.20;55.00;;;;;;5016257;28;20220;-80
2022/06/17 09:48:42;;;;;;;;;;;32.90;53.90;;;;;;5008349;28;19930;-79
2022/06/17 09:51:13;;;;;;;;;;;32.90;54.40;;;;;;5009065;28;19930;-80
2022/06/17 09:53:43;;;;;;;;;;;32.50;55.10;;;;;;5004698;28;19934;-78
2022/06/17 09:56:12;;;;;;;;;;;32.30;55.40;;;;;;5003826;28;19995;-78
2022/06/17 09:58:41;;;;;;;;;;;32.00;55.40;;;;;;4999149;28;19925;-79
2022/06/17 10:01:08;;;;;;;;;;;32.00;56.00;;;;;;5020013;28;19936;-79
2022/06/17 10:03:36;;;;;;;;;;;31.80;55.80;;;;;;5017222;28;19983;-79
2022/06/17 10:06:11;;;;;;;;;;;32.70;56.90;;;;;;5011879;28;19933;-78
2022/06/17 10:08:50;;;;;;;;;;;30.30;55.90;;;;;;4992101;28;19979;-78
2022/06/17 10:11:20;;;;;;;;;;;29.70;56.20;;;;;;5018808;28;19925;-79
2022/06/17 10:14:03;;;;;;;;;;;29.50;56.10;;;;;;5022593;28;20430;-78
2022/06/17 10:19:27;;;;;;;;;;;28.50;57.70;;;;;;5012248;28;19949;-80
2022/06/17 10:22:01;;;;;;;;;;;28.30;59.40;;;;;;5013500;28;20024;-80
2022/06/17 10:24:34;;;;;;;;;;;28.00;60.50;;;;;;4997616;28;20007;-83
2022/06/17 10:27:07;;;;;;;;;;;28.00;61.00;;;;;;5006584;28;19925;-83
2022/06/17 10:29:41;;;;;;;;;;;27.90;60.30;;;;;;5021644;28;19932;-81
2022/06/17 10:32:08;;;;;;;;;;;27.80;61.80;;;;;;5022374;28;19929;-79
2022/06/17 10:34:38;;;;;;;;;;;26.00;60.30;;;;;;5015917;28;19957;-79
2022/06/17 10:37:06;;;;;;;;;;;27.80;61.30;;;;;;5018043;28;19995;-79
2022/06/17 10:39:35;;;;;;;;;;;27.80;59.60;;;;;;5013899;28;20350;-79
2022/06/17 10:42:03;;;;;;;;;;;27.80;60.40;;;;;;5006902;28;20392;-79
2022/06/17 10:44:30;;;;;;;;;;;27.80;59.60;;;;;;5017850;28;19927;-78
2022/06/17 10:47:00;;;;;;;;;;;27.80;59.50;;;;;;5015994;28;19936;-79
2022/06/17 10:49:29;;;;;;;;;;;27.90;59.60;;;;;;5012950;28;20704;-78
2022/06/17 10:51:58;;;;;;;;;;;27.90;60.40;;;;;;5015197;28;19953;-78
2022/06/17 10:54:27;;;;;;;;;;;27.90;60.40;;;;;;5026093;28;19975;-80
2022/06/17 10:57:01;;;;;;;;;;;28.00;60.00;;;;;;5015897;28;19929;-78
2022/06/17 10:59:32;;;;;;;;;;;28.20;60.20;;;;;;5015889;28;20119;-79
2022/06/17 11:01:59;;;;;;;;;;;30.20;61.80;;;;;;5016905;28;20370;-78
2022/06/17 11:04:27;;;;;;;;;;;28.60;60.50;;;;;;5015794;28;19933;-78
2022/06/17 11:06:55;;;;;;;;;;;28.90;60.00;;;;;;5009740;28;19936;-78
2022/06/17 11:09:24;;;;;;;;;;;29.10;59.10;;;;;;5006311;28;19940;-78
2022/06/17 11:12:05;;;;;;;;;;;29.50;59.60;;;;;;5011588;28;19937;-78
2022/06/17 11:14:39;;;;;;;;;;;29.80;59.30;;;;;;5010810;28;19925;-78
2022/06/17 11:17:13;;;;;;;;;;;30.20;59.30;;;;;;5009367;28;19945;-78
2022/06/17 11:19:41;;;;;;;;;;;30.60;58.20;;;;;;5009668;28;19980;-78
2022/06/17 11:22:16;;;;;;;;;;;30.70;58.30;;;;;;5007972;28;19948;-78
2022/06/17 11:24:49;;;;;;;;;;;31.00;57.90;;;;;;5006794;28;19936;-78
2022/06/17 11:27:22;;;;;;;;;;;31.20;57.70;;;;;;5006369;28;20406;-79
2022/06/17 11:29:52;;;;;;;;;;;31.40;57.30;;;;;;5002110;28;19936;-78
2022/06/17 11:32:37;;;;;;;;;;;31.60;56.60;;;;;;5011272;28;20048;-78
2022/06/17 11:35:17;;;;;;;;;;;31.80;56.40;;;;;;5005469;28;19965;-79
2022/06/17 11:37:47;;;;;;;;;;;31.80;54.90;;;;;;4991862;28;19984;-80
2022/06/17 11:40:18;;;;;;;;;;;31.50;54.90;;;;;;5000887;28;19914;-84
2022/06/17 11:42:49;;;;;;;;;;;31.80;55.30;;;;;;4997177;28;19930;-79
2022/06/17 11:45:19;;;;;;;;;;;31.70;55.00;;;;;;4990597;28;19977;-82
2022/06/17 11:47:49;;;;;;;;;;;31.70;55.80;;;;;;4994415;28;19993;-80
2022/06/17 11:50:18;;;;;;;;;;;31.60;55.20;;;;;;5009069;28;20334;-80
2022/06/17 11:52:48;;;;;;;;;;;31.50;55.50;;;;;;5007982;28;19929;-81
2022/06/17 11:55:16;;;;;;;;;;;31.50;55.70;;;;;;5018350;28;19935;-80
2022/06/17 11:57:43;;;;;;;;;;;31.40;55.70;;;;;;4987276;28;19971;-81
2022/06/17 12:00:22;;;;;;;;;;;31.10;55.60;;;;;;5008734;28;19925;-81
2022/06/17 12:02:53;;;;;;;;;;;31.00;55.90;;;;;;5008985;28;20383;-80
2022/06/17 12:05:21;;;;;;;;;;;30.80;55.50;;;;;;5009085;28;19936;-81
2022/06/17 12:07:50;;;;;;;;;;;30.60;56.10;;;;;;5012102;28;19960;-81
2022/06/17 12:10:27;;;;;;;;;;;30.50;55.30;;;;;;4987836;28;19925;-80
2022/06/17 12:12:56;;;;;;;;;;;30.50;55.70;;;;;;4997686;28;19925;-79
2022/06/17 12:15:27;;;;;;;;;;;30.50;55.30;;;;;;5005433;28;19929;-80
2022/06/17 12:17:55;;;;;;;;;;;30.60;55.60;;;;;;5001622;28;19937;-81
2022/06/17 12:20:24;;;;;;;;;;;30.60;55.30;;;;;;5018673;28;19989;-82
2022/06/17 12:22:54;;;;;;;;;;;30.60;55.80;;;;;;5008291;28;19929;-80
2022/06/17 12:25:28;;;;;;;;;;;30.70;55.50;;;;;;5000630;28;19929;-80
2022/06/17 12:27:58;;;;;;;;;;;30.80;54.50;;;;;;5010136;28;20398;-80
2022/06/17 12:30:33;;;;;;;;;;;30.90;54.40;;;;;;5011482;28;19929;-80
2022/06/17 12:33:05;;;;;;;;;;;30.90;54.60;;;;;;5003376;28;20003;-78
2022/06/17 12:35:35;;;;;;;;;;;31.00;54.40;;;;;;4994432;28;19936;-78
2022/06/17 12:38:06;;;;;;;;;;;31.10;54.80;;;;;;5001659;28;19948;-78
2022/06/17 12:40:39;;;;;;;;;;;31.20;54.10;;;;;;5002691;28;20332;-79
2022/06/17 12:43:10;;;;;;;;;;;31.30;54.80;;;;;;4988450;28;20008;-78
2022/06/17 12:45:41;;;;;;;;;;;31.40;54.60;;;;;;5012292;28;20013;-79
2022/06/17 12:48:16;;;;;;;;;;;31.50;54.20;;;;;;5000511;28;19931;-78
2022/06/17 12:53:39;;;;;;;;;;;31.70;53.10;;;;;;5010320;28;19921;-79
2022/06/17 12:56:21;;;;;;;;;;;31.90;53.50;;;;;;5011800;28;19995;-80
2022/06/17 12:58:58;;;;;;;;;;;32.40;53.00;;;;;;5004087;28;19925;-79
2022/06/17 13:01:32;;;;;;;;;;;32.50;53.00;;;;;;5011467;28;19925;-78
2022/06/17 13:04:04;;;;;;;;;;;32.70;53.10;;;;;;5007203;28;19937;-78
2022/06/17 13:06:34;;;;;;;;;;;32.80;52.70;;;;;;5011875;28;19935;-79
2022/06/17 13:09:04;;;;;;;;;;;33.00;52.40;;;;;;5009337;28;19962;-79
2022/06/17 13:11:35;;;;;;;;;;;33.00;52.40;;;;;;4992875;28;19948;-79
2022/06/17 13:14:14;;;;;;;;;;;33.00;52.10;;;;;;5014717;28;19930;-80
2022/06/17 13:16:46;;;;;;;;;;;33.00;52.00;;;;;;5011759;28;20801;-78
2022/06/17 13:19:18;;;;;;;;;;;33.00;51.40;;;;;;5004721;28;19965;-80
2022/06/17 13:21:47;;;;;;;;;;;33.00;51.90;;;;;;5004251;28;20375;-77
2022/06/17 13:24:18;;;;;;;;;;;32.90;52.00;;;;;;5007251;28;19930;-77
2022/06/17 13:26:51;;;;;;;;;;;32.90;52.40;;;;;;5000033;28;22044;-78
2022/06/17 13:29:21;;;;;;;;;;;33.00;52.70;;;;;;4998624;28;19980;-78
2022/06/17 13:31:54;;;;;;;;;;;33.00;52.80;;;;;;5008191;28;20021;-78
2022/06/17 13:34:26;;;;;;;;;;;33.00;52.90;;;;;;5009710;28;19965;-78
2022/06/17 13:36:55;;;;;;;;;;;33.10;53.00;;;;;;4986300;28;19926;-78
2022/06/17 13:39:24;;;;;;;;;;;33.20;52.60;;;;;;5008195;28;19937;-79
2022/06/17 13:41:54;;;;;;;;;;;33.10;52.50;;;;;;5009914;28;19973;-81
2022/06/17 13:44:27;;;;;;;;;;;33.20;52.30;;;;;;5009435;28;19967;-78
2022/06/17 13:46:59;;;;;;;;;;;33.10;52.40;;;;;;5008487;28;19937;-79
2022/06/17 13:49:34;;;;;;;;;;;33.00;52.50;;;;;;5005655;28;19929;-79
2022/06/17 13:52:05;;;;;;;;;;;32.90;53.00;;;;;;5004538;28;19930;-79
2022/06/17 13:54:37;;;;;;;;;;;32.90;53.80;;;;;;5004656;28;19929;-83
2022/06/17 13:57:07;;;;;;;;;;;32.90;52.70;;;;;;5009498;28;19929;-81
2022/06/17 13:59:36;;;;;;;;;;;32.80;52.20;;;;;;5010405;28;19926;-83
2022/06/17 14:02:21;;;;;;;;;;;32.80;52.60;;;;;;5017752;28;19973;-81
2022/06/17 14:05:08;;;;;;;;;;;32.90;52.30;;;;;;5007987;28;19996;-80
2022/06/17 14:07:54;;;;;;;;;;;32.70;51.80;;;;;;5007556;28;19932;-83
2022/06/17 14:10:29;;;;;;;;;;;32.80;52.30;;;;;;5007730;28;20040;-78
2022/06/17 14:12:56;;;;;;;;;;;32.70;52.70;;;;;;5006290;28;19926;-79
2022/06/17 14:15:27;;;;;;;;;;;32.80;53.20;;;;;;5007097;28;20402;-79
2022/06/17 14:17:56;;;;;;;;;;;32.80;53.10;;;;;;5008911;28;19930;-78
2022/06/17 14:20:32;;;;;;;;;;;32.80;52.70;;;;;;5011144;28;19964;-79
2022/06/17 14:23:01;;;;;;;;;;;32.80;53.00;;;;;;5011267;28;19925;-78
2022/06/17 14:25:43;;;;;;;;;;;32.80;53.00;;;;;;5012122;28;19932;-78
2022/06/17 14:28:25;;;;;;;;;;;32.80;53.10;;;;;;5008890;28;19933;-79
2022/06/17 14:31:08;;;;;;;;;;;32.80;52.80;;;;;;5005280;28;20414;-78
2022/06/17 14:33:41;;;;;;;;;;;32.70;52.90;;;;;;4993082;28;19929;-79
2022/06/17 14:36:09;;;;;;;;;;;32.70;53.20;;;;;;5015927;28;19929;-79
2022/06/17 14:38:40;;;;;;;;;;;32.80;52.90;;;;;;5012347;28;20361;-81
2022/06/17 14:43:56;;;;;;;;;;;32.90;53.30;;;;;;5014102;28;19922;-79
2022/06/17 14:46:23;;;;;;;;;;;32.90;53.40;;;;;;5020364;28;19984;-80
2022/06/17 14:48:53;;;;;;;;;;;32.80;53.00;;;;;;5013471;28;19929;-82
2022/06/17 14:51:35;;;;;;;;;;;32.80;53.50;;;;;;5014212;28;19937;-82
2022/06/17 14:54:04;;;;;;;;;;;32.80;53.70;;;;;;5011024;28;20008;-81
2022/06/17 14:56:43;;;;;;;;;;;32.70;53.80;;;;;;5012915;28;19936;-81
2022/06/17 14:59:15;;;;;;;;;;;32.80;53.50;;;;;;5017052;28;19929;-84